Time;durP1;ratioP1;P1;durP2;ratioP2;P2;SDS_P1;SDS_P2;PMS_P1;PMS_P2;Temp;Humidity;BMP_temperature;BMP_pressure;BME280_temperature;BME280_humidity;BME280_pressure;Samples;Min_cycle;Max_cycle;Signal;HPM_P1;HPM_P2
2021/05/07 15:57:43;;;;;;;42.70;6.13;;;;;;;;;;5078836;27;20402;-60
2021/05/07 16:00:10;;;;;;;45.58;6.07;;;;;;;;;;5076203;28;20494;-59
2021/05/07 16:02:36;;;;;;;49.88;6.05;;;;;;;;;;5077454;28;20260;-58
2021/05/07 16:05:05;;;;;;;46.03;5.75;;;;;;;;;;5078596;28;20028;-59
2021/05/07 16:07:31;;;;;;;37.03;5.22;;;;;;;;;;5058295;28;20055;-59
2021/05/07 16:09:57;;;;;;;33.47;5.28;;;;;;;;;;5047107;28;20037;-59
2021/05/07 16:12:26;;;;;;;32.80;4.55;;;;;;;;;;5058426;28;20095;-60
2021/05/07 16:14:52;;;;;;;31.38;4.63;;;;;;;;;;5052202;28;20029;-58
2021/05/07 16:17:18;;;;;;;45.38;6.63;;;;;;;;;;5051733;28;20032;-59
2021/05/07 16:19:44;;;;;;;33.95;5.45;;;;;;;;;;5019553;28;20129;-62
2021/05/07 16:22:10;;;;;;;22.40;3.60;;;;;;;;;;5035605;28;20045;-56
2021/05/07 16:24:36;;;;;;;31.45;3.58;;;;;;;;;;5029641;28;20122;-59
2021/05/07 16:27:02;;;;;;;25.95;3.15;;;;;;;;;;5036553;28;20036;-55
2021/05/07 16:29:27;;;;;;;25.00;3.58;;;;;;;;;;5029324;28;20440;-57
2021/05/07 16:31:54;;;;;;;28.02;7.90;;;;;;;;;;5028806;28;20080;-60
2021/05/07 16:34:20;;;;;;;20.35;6.82;;;;;;;;;;4972398;28;20044;-58
2021/05/07 16:36:47;;;;;;;12.82;4.72;;;;;;;;;;5035407;28;20134;-58
2021/05/07 16:39:18;;;;;;;25.73;4.57;;;;;;;;;;5017118;28;20029;-57
2021/05/07 16:41:44;;;;;;;19.63;4.40;;;;;;;;;;5036660;28;20513;-59
2021/05/07 16:44:10;;;;;;;24.40;4.72;;;;;;;;;;5034867;28;20412;-59
2021/05/07 16:46:36;;;;;;;17.88;4.72;;;;;;;;;;5031617;28;20037;-57
2021/05/07 16:49:02;;;;;;;21.58;4.32;;;;;;;;;;5022247;28;20386;-57
2021/05/07 16:51:28;;;;;;;20.88;3.28;;;;;;;;;;5014830;28;20362;-58
2021/05/07 16:53:54;;;;;;;20.48;3.63;;;;;;;;;;5015463;28;20042;-58
2021/05/07 16:56:20;;;;;;;12.00;3.38;;;;;;;;;;5014684;28;20052;-57
2021/05/07 16:58:46;;;;;;;8.73;3.47;;;;;;;;;;5015352;28;20040;-58
2021/05/07 17:01:12;;;;;;;13.02;3.35;;;;;;;;;;5015078;28;20030;-58
2021/05/07 17:03:37;;;;;;;11.20;3.10;;;;;;;;;;5013713;28;20049;-57
2021/05/07 17:06:04;;;;;;;8.27;2.67;;;;;;;;;;5016214;28;20064;-57
2021/05/07 17:08:30;;;;;;;8.85;2.88;;;;;;;;;;5016336;28;20069;-57
2021/05/07 17:10:56;;;;;;;17.05;3.13;;;;;;;;;;5021649;28;20064;-58
2021/05/07 17:13:22;;;;;;;15.43;3.10;;;;;;;;;;5021862;28;20207;-58
2021/05/07 17:15:48;;;;;;;7.97;2.63;;;;;;;;;;5020545;28;20029;-56
2021/05/07 17:18:14;;;;;;;9.18;2.72;;;;;;;;;;5015505;28;20116;-59
2021/05/07 17:20:40;;;;;;;11.75;2.92;;;;;;;;;;5018547;28;20104;-59
2021/05/07 17:23:06;;;;;;;8.30;2.60;;;;;;;;;;5022104;28;20203;-57
2021/05/07 17:25:33;;;;;;;6.75;2.65;;;;;;;;;;5013325;28;20747;-57
2021/05/07 17:27:59;;;;;;;7.57;2.83;;;;;;;;;;5020640;28;20018;-56
2021/05/07 17:30:25;;;;;;;7.03;2.97;;;;;;;;;;5021449;28;20125;-58
2021/05/07 17:32:51;;;;;;;5.90;2.15;;;;;;;;;;5024379;28;20456;-57
2021/05/07 17:35:19;;;;;;;8.10;2.10;;;;;;;;;;5023236;28;20029;-57
2021/05/07 17:37:45;;;;;;;5.55;2.15;;;;;;;;;;5023389;28;20029;-58
2021/05/07 17:40:12;;;;;;;5.38;1.98;;;;;;;;;;5020180;28;20041;-57
2021/05/07 17:42:38;;;;;;;5.95;2.38;;;;;;;;;;5020914;28;20077;-57
2021/05/07 17:45:08;;;;;;;2.83;2.00;;;;;;;;;;5020955;28;20017;-58
2021/05/07 17:47:34;;;;;;;8.50;1.90;;;;;;;;;;5020286;28;20065;-57
2021/05/07 17:50:00;;;;;;;6.32;2.33;;;;;;;;;;5023116;28;20062;-57
2021/05/07 17:52:26;;;;;;;5.28;2.25;;;;;;;;;;5024791;28;20087;-57
2021/05/07 17:54:56;;;;;;;6.05;1.70;;;;;;;;;;5027235;28;20030;-58
2021/05/07 17:57:22;;;;;;;3.67;1.90;;;;;;;;;;5013709;28;20108;-55
2021/05/07 17:59:48;;;;;;;5.53;1.80;;;;;;;;;;5024032;28;20087;-58
2021/05/07 18:02:14;;;;;;;6.57;1.90;;;;;;;;;;5027016;28;20465;-58
2021/05/07 18:04:40;;;;;;;5.45;2.10;;;;;;;;;;5027474;28;20029;-57
2021/05/07 18:07:06;;;;;;;3.25;1.85;;;;;;;;;;5026674;28;20028;-57
2021/05/07 18:09:32;;;;;;;4.30;1.60;;;;;;;;;;5022107;28;20292;-58
2021/05/07 18:12:00;;;;;;;6.30;1.73;;;;;;;;;;5023112;28;20037;-58
2021/05/07 18:14:26;;;;;;;1.67;1.58;;;;;;;;;;5029153;28;20025;-58
2021/05/07 18:16:52;;;;;;;4.22;1.27;;;;;;;;;;5024120;28;20029;-59
2021/05/07 18:19:18;;;;;;;2.47;1.13;;;;;;;;;;5020065;28;20472;-58
2021/05/07 18:21:44;;;;;;;6.13;1.35;;;;;;;;;;5021792;28;20025;-56
2021/05/07 18:24:10;;;;;;;4.93;1.65;;;;;;;;;;5018862;28;20033;-58
2021/05/07 18:26:36;;;;;;;2.60;1.60;;;;;;;;;;5018936;28;20056;-58
2021/05/07 18:29:02;;;;;;;7.80;1.40;;;;;;;;;;5015109;28;20018;-59
2021/05/07 18:31:28;;;;;;;5.70;1.30;;;;;;;;;;5021414;28;20100;-58
2021/05/07 18:33:57;;;;;;;4.97;1.30;;;;;;;;;;5024358;28;20041;-59
2021/05/07 18:36:23;;;;;;;5.47;1.38;;;;;;;;;;5022923;28;20056;-59
2021/05/07 18:38:49;;;;;;;3.30;1.27;;;;;;;;;;5022256;28;20068;-58
2021/05/07 18:41:15;;;;;;;2.08;1.30;;;;;;;;;;5019051;28;20140;-58
2021/05/07 18:43:41;;;;;;;2.15;1.20;;;;;;;;;;5013003;28;20366;-58
2021/05/07 18:46:07;;;;;;;1.20;1.10;;;;;;;;;;5003258;28;20018;-58
2021/05/07 18:48:33;;;;;;;2.85;1.30;;;;;;;;;;5019744;28;20033;-59
2021/05/07 18:50:59;;;;;;;3.10;1.10;;;;;;;;;;5020082;28;20072;-58
2021/05/07 18:53:25;;;;;;;4.45;1.13;;;;;;;;;;5017103;28;20457;-58
2021/05/07 18:56:01;;;;;;;2.45;0.98;;;;;;;;;;5019681;28;20037;-58
2021/05/07 18:58:27;;;;;;;3.20;1.08;;;;;;;;;;5018527;28;20049;-59
2021/05/07 19:00:53;;;;;;;1.10;0.90;;;;;;;;;;5020221;28;20074;-58
2021/05/07 19:03:19;;;;;;;1.65;1.33;;;;;;;;;;5019026;28;20037;-59
2021/05/07 19:05:46;;;;;;;1.65;1.20;;;;;;;;;;5023886;28;20322;-59
2021/05/07 19:08:12;;;;;;;2.50;1.20;;;;;;;;;;5020065;28;20639;-60
2021/05/07 19:10:38;;;;;;;2.80;1.23;;;;;;;;;;5018703;28;20164;-59
2021/05/07 19:13:04;;;;;;;2.08;1.38;;;;;;;;;;5006354;28;20268;-59
2021/05/07 19:15:34;;;;;;;2.25;1.02;;;;;;;;;;5017979;28;20849;-59
2021/05/07 19:18:00;;;;;;;2.35;1.13;;;;;;;;;;4995406;28;20063;-58
2021/05/07 19:20:26;;;;;;;3.25;1.42;;;;;;;;;;5017670;28;20030;-59
2021/05/07 19:22:52;;;;;;;5.00;1.05;;;;;;;;;;5020517;28;20080;-58
2021/05/07 19:25:18;;;;;;;5.20;1.10;;;;;;;;;;5014752;28;20101;-58
2021/05/07 19:27:44;;;;;;;2.65;1.10;;;;;;;;;;5017990;28;20036;-58
2021/05/07 19:30:10;;;;;;;2.85;1.25;;;;;;;;;;5020601;28;20033;-59
2021/05/07 19:32:36;;;;;;;1.95;1.00;;;;;;;;;;5013104;28;20412;-60
2021/05/07 19:35:02;;;;;;;1.15;0.93;;;;;;;;;;5013109;28;20022;-59
2021/05/07 19:37:28;;;;;;;0.88;0.88;;;;;;;;;;5017184;28;20037;-58
2021/05/07 19:39:55;;;;;;;1.52;1.02;;;;;;;;;;5019987;28;20149;-59
2021/05/07 19:42:21;;;;;;;0.85;0.85;;;;;;;;;;5017122;28;20079;-59
2021/05/07 19:44:47;;;;;;;3.20;1.20;;;;;;;;;;5016934;28;20481;-59
2021/05/07 19:47:13;;;;;;;3.47;1.30;;;;;;;;;;5011981;28;20044;-59
2021/05/07 19:49:39;;;;;;;4.30;1.10;;;;;;;;;;5019860;28;20693;-59
2021/05/07 19:52:05;;;;;;;1.10;1.10;;;;;;;;;;5020945;28;21176;-60
2021/05/07 19:54:31;;;;;;;4.68;1.10;;;;;;;;;;5015301;28;20444;-59
2021/05/07 19:56:57;;;;;;;3.63;1.30;;;;;;;;;;5016650;28;20036;-60
2021/05/07 19:59:23;;;;;;;6.38;1.20;;;;;;;;;;5017112;28;20450;-60
2021/05/07 20:01:49;;;;;;;4.03;1.83;;;;;;;;;;5017778;28;20749;-59
2021/05/07 20:04:15;;;;;;;1.48;1.38;;;;;;;;;;5018862;28;20527;-59
2021/05/07 20:06:41;;;;;;;1.17;1.13;;;;;;;;;;5015299;28;20029;-60
2021/05/07 20:09:07;;;;;;;1.50;1.10;;;;;;;;;;5015720;28;20026;-59
2021/05/07 20:11:33;;;;;;;1.20;1.10;;;;;;;;;;5022557;28;20083;-59
2021/05/07 20:13:59;;;;;;;2.58;1.15;;;;;;;;;;5024506;28;20450;-59
2021/05/07 20:16:26;;;;;;;1.17;1.13;;;;;;;;;;5020170;28;20030;-59
2021/05/07 20:18:52;;;;;;;1.48;0.90;;;;;;;;;;5022944;28;20099;-59
2021/05/07 20:21:18;;;;;;;0.88;0.88;;;;;;;;;;5021761;28;20410;-58
2021/05/07 20:23:44;;;;;;;5.15;1.33;;;;;;;;;;5020808;28;20048;-60
2021/05/07 20:26:11;;;;;;;1.10;0.93;;;;;;;;;;5024090;28;20174;-59
2021/05/07 20:28:37;;;;;;;2.53;1.00;;;;;;;;;;5019357;28;20327;-59
2021/05/07 20:31:03;;;;;;;3.22;0.95;;;;;;;;;;5021648;28;20084;-59
2021/05/07 20:33:32;;;;;;;2.55;1.27;;;;;;;;;;5019574;28;20009;-59
2021/05/07 20:35:59;;;;;;;1.17;0.80;;;;;;;;;;5018468;28;20033;-60
2021/05/07 20:38:25;;;;;;;2.67;1.20;;;;;;;;;;5019515;28;20070;-58
2021/05/07 20:40:51;;;;;;;0.90;0.90;;;;;;;;;;5021148;28;20025;-59
2021/05/07 20:43:17;;;;;;;1.00;1.00;;;;;;;;;;5024564;28;20021;-61
2021/05/07 20:45:43;;;;;;;0.82;0.82;;;;;;;;;;5025519;28;20128;-59
2021/05/07 20:48:09;;;;;;;2.58;0.80;;;;;;;;;;5023860;28;20026;-59
2021/05/07 20:50:35;;;;;;;1.13;1.13;;;;;;;;;;5013844;28;20076;-59
2021/05/07 20:53:01;;;;;;;1.95;1.00;;;;;;;;;;5017186;28;20115;-60
2021/05/07 20:55:27;;;;;;;0.80;0.80;;;;;;;;;;5020868;28;20127;-59
2021/05/07 20:57:53;;;;;;;0.90;0.90;;;;;;;;;;5023880;28;20041;-59
2021/05/07 21:00:19;;;;;;;2.88;1.20;;;;;;;;;;5020132;28;20032;-59
2021/05/07 21:02:49;;;;;;;0.80;0.80;;;;;;;;;;5024886;28;20036;-59
2021/05/07 21:05:15;;;;;;;1.10;1.00;;;;;;;;;;5018658;28;20040;-59
2021/05/07 21:07:41;;;;;;;1.33;0.73;;;;;;;;;;5022570;28;20037;-59
2021/05/07 21:10:08;;;;;;;0.63;0.63;;;;;;;;;;5016185;28;20495;-59
2021/05/07 21:12:34;;;;;;;0.80;0.80;;;;;;;;;;5023199;28;20041;-58
2021/05/07 21:15:00;;;;;;;0.80;0.80;;;;;;;;;;5024213;28;20037;-58
2021/05/07 21:17:26;;;;;;;1.52;0.80;;;;;;;;;;5020081;28;20036;-59
2021/05/07 21:19:52;;;;;;;1.25;0.88;;;;;;;;;;5020474;28;20052;-59
2021/05/07 21:22:17;;;;;;;0.90;0.90;;;;;;;;;;5015780;28;20416;-59
2021/05/07 21:24:44;;;;;;;0.82;0.82;;;;;;;;;;5017041;28;20754;-59
2021/05/07 21:27:10;;;;;;;0.90;0.90;;;;;;;;;;5020645;28;20535;-59
2021/05/07 21:29:36;;;;;;;2.10;1.33;;;;;;;;;;5022006;28;20033;-59
2021/05/07 21:32:02;;;;;;;1.15;0.75;;;;;;;;;;5026456;28;20540;-59
2021/05/07 21:34:28;;;;;;;0.73;0.73;;;;;;;;;;5024305;28;20037;-59
2021/05/07 21:36:54;;;;;;;0.77;0.77;;;;;;;;;;5023140;28;20037;-59
2021/05/07 21:39:20;;;;;;;0.88;0.88;;;;;;;;;;5023539;28;20033;-59
2021/05/07 21:41:46;;;;;;;0.80;0.80;;;;;;;;;;5022410;28;20022;-60
2021/05/07 21:44:11;;;;;;;0.73;0.73;;;;;;;;;;5022116;28;20036;-59
2021/05/07 21:46:41;;;;;;;0.70;0.70;;;;;;;;;;5024715;28;20111;-58
2021/05/07 21:49:07;;;;;;;0.80;0.80;;;;;;;;;;5021226;28;20124;-59
2021/05/07 21:51:33;;;;;;;1.13;0.73;;;;;;;;;;5022180;28;20550;-58
2021/05/07 21:53:59;;;;;;;0.80;0.80;;;;;;;;;;5024645;28;20104;-58
2021/05/07 21:56:25;;;;;;;2.05;0.80;;;;;;;;;;5021445;28;20525;-59
2021/05/07 21:58:51;;;;;;;0.70;0.70;;;;;;;;;;5021059;28;20034;-59
2021/05/07 22:01:17;;;;;;;1.38;0.70;;;;;;;;;;5024731;28;20100;-60
2021/05/07 22:03:43;;;;;;;0.90;0.90;;;;;;;;;;5020622;28;20576;-59
2021/05/07 22:06:09;;;;;;;0.77;0.77;;;;;;;;;;5020374;28;20334;-59
2021/05/07 22:08:35;;;;;;;0.80;0.80;;;;;;;;;;5016383;28;20072;-59
2021/05/07 22:11:03;;;;;;;0.60;0.60;;;;;;;;;;5021439;28;20452;-59
2021/05/07 22:13:29;;;;;;;0.80;0.80;;;;;;;;;;5018628;28;20014;-59
2021/05/07 22:15:55;;;;;;;2.63;0.80;;;;;;;;;;5004425;28;20036;-59
2021/05/07 22:18:21;;;;;;;0.70;0.70;;;;;;;;;;5019184;28;20437;-59
2021/05/07 22:20:48;;;;;;;1.00;0.70;;;;;;;;;;5022842;28;20479;-59
2021/05/07 22:23:14;;;;;;;0.80;0.80;;;;;;;;;;5017346;28;20092;-59
2021/05/07 22:25:40;;;;;;;0.65;0.65;;;;;;;;;;5016866;28;20022;-60
2021/05/07 22:28:06;;;;;;;0.68;0.68;;;;;;;;;;5027355;28;20024;-58
2021/05/07 22:30:32;;;;;;;1.58;1.00;;;;;;;;;;5012821;28;20057;-60
2021/05/07 22:32:58;;;;;;;0.80;0.80;;;;;;;;;;5022229;28;20024;-59
2021/05/07 22:35:24;;;;;;;1.20;0.68;;;;;;;;;;5020706;28;20357;-60
2021/05/07 22:37:51;;;;;;;0.60;0.60;;;;;;;;;;5024239;28;20586;-59
2021/05/07 22:40:17;;;;;;;0.80;0.80;;;;;;;;;;5015803;28;20103;-59
2021/05/07 22:42:43;;;;;;;0.50;0.50;;;;;;;;;;5021689;28;20021;-59
2021/05/07 22:45:09;;;;;;;0.82;0.82;;;;;;;;;;5018091;28;20557;-60
2021/05/07 22:47:35;;;;;;;0.50;0.50;;;;;;;;;;5021493;28;20037;-60
2021/05/07 22:50:01;;;;;;;0.80;0.50;;;;;;;;;;5020608;28;20029;-60
2021/05/07 22:52:27;;;;;;;0.68;0.68;;;;;;;;;;5014253;28;20542;-59
2021/05/07 22:54:53;;;;;;;0.77;0.77;;;;;;;;;;5013853;28;20052;-58
2021/05/07 22:57:19;;;;;;;1.02;0.80;;;;;;;;;;5020644;28;20080;-59
2021/05/07 22:59:45;;;;;;;0.55;0.55;;;;;;;;;;5028751;28;20044;-59
2021/05/07 23:02:11;;;;;;;0.90;0.80;;;;;;;;;;5027406;28;20098;-58
2021/05/07 23:04:37;;;;;;;0.70;0.70;;;;;;;;;;5017745;28;20442;-58
2021/05/07 23:07:03;;;;;;;0.43;0.43;;;;;;;;;;5013214;28;20157;-59
2021/05/07 23:09:29;;;;;;;0.40;0.40;;;;;;;;;;5018186;28;20105;-58
2021/05/07 23:11:55;;;;;;;0.50;0.50;;;;;;;;;;5010901;28;20021;-59
2021/05/07 23:14:21;;;;;;;0.40;0.40;;;;;;;;;;5020678;28;20082;-59
2021/05/07 23:16:47;;;;;;;0.68;0.68;;;;;;;;;;5020507;28;20303;-58
2021/05/07 23:19:13;;;;;;;0.70;0.70;;;;;;;;;;5019251;28;20493;-59
2021/05/07 23:21:39;;;;;;;0.60;0.60;;;;;;;;;;5022350;28;20029;-60
2021/05/07 23:24:05;;;;;;;0.50;0.50;;;;;;;;;;5023176;28;20128;-59
2021/05/07 23:26:31;;;;;;;0.50;0.50;;;;;;;;;;5011597;28;20095;-59
2021/05/07 23:28:57;;;;;;;0.40;0.40;;;;;;;;;;5017259;28;20429;-59
2021/05/07 23:31:23;;;;;;;0.60;0.60;;;;;;;;;;5021331;28;20430;-61
2021/05/07 23:33:49;;;;;;;0.50;0.50;;;;;;;;;;5019680;28;20545;-59
2021/05/07 23:36:15;;;;;;;0.43;0.43;;;;;;;;;;5017843;28;20030;-58
2021/05/07 23:38:41;;;;;;;0.40;0.40;;;;;;;;;;5013381;28;20040;-60
2021/05/07 23:41:07;;;;;;;0.60;0.60;;;;;;;;;;5017755;28;20049;-60
2021/05/07 23:43:33;;;;;;;0.40;0.40;;;;;;;;;;5002797;28;20025;-60
2021/05/07 23:45:58;;;;;;;1.75;0.55;;;;;;;;;;5017233;28;20533;-59
2021/05/07 23:48:24;;;;;;;0.40;0.40;;;;;;;;;;5019609;28;20072;-58
2021/05/07 23:50:50;;;;;;;0.55;0.55;;;;;;;;;;5018617;28;20026;-60
2021/05/07 23:53:16;;;;;;;0.45;0.45;;;;;;;;;;5023256;28;20092;-59
2021/05/07 23:55:42;;;;;;;0.50;0.50;;;;;;;;;;5021370;28;20425;-58
2021/05/07 23:58:08;;;;;;;0.73;0.60;;;;;;;;;;5023190;28;20454;-58
